Clearfield, South Dakota
Current Conditions -  °F | °C
As of 11:53 PM on Saturday 22 Nov 2014 (Local Time) from KICR Reporting Station
Clear Clear  
Wind Chill: 45°   Ceiling: Unl
Heat Index: 49°   Visibility: 10mi
Dew Point: 36°   Wind: 8mph
Humidity: 61%   Direction: 210°SSW
Pressure: 29.41"   Gusts: NA
Location:  43.2923°N, 99.8934°W
Report Text: KICR 230553Z AUTO 21007KT 10SM CLR 09/02 A2941 RMK AO2 SLP960 60000 T00940022 10117 20083 401671017 58011
Loading
Personal Weather Stations






























Interactive Weather Map New forecast layout! Learn more

10-Day Weather Forecast

Advertisements
Track Severe Weather on mobile